IST,Max TemperatureF,Mean TemperatureF,Min TemperatureF,Max Dew PointF,MeanDew PointF,Min DewpointF,Max Humidity, Mean Humidity, Min Humidity, Max Sea Level PressureIn, Mean Sea Level PressureIn, Min Sea Level PressureIn, Max VisibilityMiles, Mean VisibilityMiles, Min VisibilityMiles, Max Wind SpeedMPH, Mean Wind SpeedMPH, Max Gust SpeedMPH,PrecipitationIn, CloudCover, Events, WindDirDegrees
2012-11-1,87,80,72,77,74,70,89,77,63,29.75,29.65,29.56,6,3,2,20,11,25,0.00,5,,171
2012-11-2,94,86,77,79,76,72,89,75,46,29.81,29.71,29.65,6,4,2,16,9,23,0.00,3,,177
2012-11-3,91,83,75,79,76,72,94,80,55,29.85,29.76,29.68,6,3,1,14,8,,0.83,4,Rain-Thunderstorm,189
2012-11-4,92,82,72,78,75,72,94,78,46,29.86,29.77,29.68,6,3,1,14,4,,0.00,3,Rain-Thunderstorm,181
2012-11-5,93,84,76,79,76,73,94,78,47,29.85,29.78,29.71,6,3,2,12,3,,0.00,2,,185
2012-11-6,91,83,75,79,76,73,94,79,57,29.89,29.81,29.74,6,3,1,14,4,,0.00,2,,137
2012-11-7,89,82,75,77,75,73,94,82,63,29.91,29.83,29.77,6,3,2,12,2,,0.71,3,Rain,72
2012-11-8,89,83,77,77,74,70,94,77,51,29.89,29.81,29.74,6,3,1,9,2,,0.00,1,Fog,71
2012-11-9,90,82,73,77,73,70,94,77,51,29.92,29.84,29.77,6,3,1,12,2,,0.00,1,Fog,44
2012-11-10,87,80,74,77,74,70,94,79,55,29.96,29.89,29.83,6,2,1,14,3,,0.00,2,Rain,39
2012-11-11,88,80,73,73,71,68,94,76,46,29.97,29.88,29.80,6,3,1,12,2,,0.00,1,,16
2012-11-12,88,79,70,72,69,64,94,70,41,29.96,29.88,29.80,6,3,1,12,3,,0.00,1,,20
2012-11-13,87,79,71,70,68,61,94,71,39,29.98,29.89,29.80,6,3,1,12,4,23,0.00,2,,4
2012-11-14,86,77,68,68,66,63,88,67,41,29.93,29.85,29.77,6,3,2,15,4,23,0.00,2,,357
2012-11-15,86,76,67,68,65,62,83,67,44,29.92,29.85,29.80,6,3,1,17,4,25,0.00,2,,358
2012-11-16,87,77,67,68,66,63,88,70,38,29.96,29.88,29.80,6,3,1,14,3,,0.00,2,,346
2012-11-17,88,77,66,68,63,55,94,64,27,29.96,29.86,29.77,6,3,1,10,2,,0.00,1,,7
2012-11-18,89,76,63,66,60,50,94,61,24,29.92,29.82,29.74,6,3,1,12,2,,0.00,1,,340
2012-11-19,91,80,68,70,67,61,88,65,40,29.88,29.80,29.74,6,3,1,8,2,,0.00,2,,348
2012-11-20,91,82,72,76,71,68,89,70,43,29.89,29.81,29.74,6,3,1,12,3,,0.00,3,,358
2012-11-21,91,84,77,76,75,73,89,78,58,29.90,29.81,29.74,6,3,2,15,4,23,0.00,4,Rain,336
2012-11-22,87,82,76,79,77,75,94,86,74,29.87,29.80,29.71,6,3,2,14,7,22,0.00,4,Rain,1
2012-11-23,83,80,77,79,76,75,94,86,77,29.92,29.84,29.77,6,3,2,16,9,,0.00,5,,72
2012-11-24,89,82,74,79,74,70,100,81,50,29.94,29.86,29.80,6,3,0,12,2,,0.00,2,Fog,44
2012-11-25,89,82,74,77,75,72,100,80,56,29.96,29.88,29.83,6,4,1,15,3,,0.00,3,,49
2012-11-26,87,81,75,77,73,72,94,76,58,29.96,29.89,29.83,6,3,1,14,4,,0.00,2,,39
2012-11-27,87,80,72,75,71,68,94,76,49,29.96,29.88,29.80,6,3,1,14,3,,0.00,2,,26
2012-11-28,88,79,70,70,68,57,94,72,37,29.97,29.89,29.80,6,3,1,32,4,23,0.00,2,,29
2012-11-29,88,78,69,70,66,57,94,70,29,29.93,29.86,29.80,6,3,1,10,2,,0.00,1,,45
2012-11-30,88,78,67,70,66,63,94,69,41,29.95,29.86,29.80,6,3,1,9,2,,0.00,1,,56